WMT7979 LUKK-LZIB
Flight info
| Callsign | WMT7979 |
|---|---|
| Flight time | 1h 21m |
| Altitude | 36000 |
| Route | NUNTA DCT REPTO DCT PITOK DCT KALIF DCT SLC/N0404F240 N190 NIT |
| Aircraft | A321/M-SDE3FGHIRWY/LB1 |
Departure
| Time | 2026-04-29 19:49 |
|---|---|
| Airport | Chişinău International Airport (LUKK) |
Arrival
| Time | 2026-04-29 21:11 |
|---|---|
| Airport | M. R. Štefánik Airport (LZIB) |
| Time | Latitude | Longitude | Altitude | Speed | Heading |
|---|---|---|---|---|---|
| 2026-04-29 19:19 | 46.93390 | 28.93284 | 408 ft | 0 kts | 184° |
| 2026-04-29 19:41 | 46.93399 | 28.93285 | 408 ft | 4 kts | 194° |
| 2026-04-29 19:41 | 46.93425 | 28.93294 | 408 ft | 4 kts | 197° |
| 2026-04-29 19:41 | 46.93448 | 28.93305 | 406 ft | 2 kts | 199° |
| 2026-04-29 19:41 | 46.93453 | 28.93308 | 405 ft | 0 kts | 199° |
| 2026-04-29 19:44 | 46.93438 | 28.93281 | 403 ft | 9 kts | 257° |
| 2026-04-29 19:45 | 46.93452 | 28.93135 | 408 ft | 17 kts | 277° |
| 2026-04-29 19:45 | 46.93471 | 28.92971 | 408 ft | 17 kts | 277° |
| 2026-04-29 19:45 | 46.93484 | 28.92818 | 408 ft | 12 kts | 278° |
| 2026-04-29 19:45 | 46.93431 | 28.92759 | 408 ft | 12 kts | 188° |
| 2026-04-29 19:46 | 46.93332 | 28.92742 | 408 ft | 15 kts | 187° |
| 2026-04-29 19:46 | 46.93235 | 28.92722 | 408 ft | 8 kts | 197° |
| 2026-04-29 19:46 | 46.93219 | 28.92634 | 406 ft | 13 kts | 276° |
| 2026-04-29 19:46 | 46.93233 | 28.92439 | 406 ft | 25 kts | 276° |
| 2026-04-29 19:47 | 46.93258 | 28.92179 | 407 ft | 26 kts | 278° |
| 2026-04-29 19:47 | 46.93237 | 28.92029 | 407 ft | 14 kts | 199° |
| 2026-04-29 19:47 | 46.93122 | 28.91992 | 408 ft | 20 kts | 193° |
| 2026-04-29 19:47 | 46.92970 | 28.91990 | 408 ft | 23 kts | 178° |
| 2026-04-29 19:48 | 46.92820 | 28.91998 | 409 ft | 19 kts | 178° |
| 2026-04-29 19:48 | 46.92760 | 28.92017 | 409 ft | 7 kts | 121° |
| 2026-04-29 19:48 | 46.92763 | 28.92295 | 408 ft | 57 kts | 88° |
| 2026-04-29 19:48 | 46.92783 | 28.93236 | 408 ft | 126 kts | 88° |
| 2026-04-29 19:49 | 46.92831 | 28.94761 | 622 ft | 159 kts | 84° |
| 2026-04-29 19:49 | 46.92875 | 28.96367 | 1406 ft | 158 kts | 85° |
| 2026-04-29 19:49 | 46.92904 | 28.97945 | 2164 ft | 156 kts | 84° |
| 2026-04-29 19:49 | 46.92932 | 28.99546 | 2714 ft | 162 kts | 85° |
| 2026-04-29 19:50 | 46.92965 | 29.01247 | 3146 ft | 176 kts | 85° |
| 2026-04-29 19:50 | 46.93003 | 29.03149 | 3422 ft | 198 kts | 85° |
| 2026-04-29 19:50 | 46.93126 | 29.05253 | 3625 ft | 218 kts | 71° |
| 2026-04-29 19:50 | 46.94065 | 29.07045 | 3881 ft | 233 kts | 29° |
| 2026-04-29 19:51 | 46.95661 | 29.07528 | 4304 ft | 248 kts | 351° |
| 2026-04-29 19:51 | 46.97203 | 29.06374 | 4980 ft | 258 kts | 314° |
| 2026-04-29 19:51 | 46.98166 | 29.04138 | 5778 ft | 263 kts | 295° |
| 2026-04-29 19:51 | 46.98830 | 29.01629 | 6657 ft | 265 kts | 290° |
| 2026-04-29 19:52 | 46.99453 | 28.99072 | 7500 ft | 267 kts | 290° |
| 2026-04-29 19:52 | 47.00135 | 28.96530 | 8341 ft | 269 kts | 292° |
| 2026-04-29 19:52 | 47.00895 | 28.94009 | 9187 ft | 271 kts | 293° |
| 2026-04-29 19:52 | 47.01720 | 28.91512 | 10037 ft | 274 kts | 294° |
| 2026-04-29 19:53 | 47.02602 | 28.88991 | 10590 ft | 287 kts | 295° |
| 2026-04-29 19:53 | 47.03573 | 28.86295 | 10787 ft | 311 kts | 296° |
| 2026-04-29 19:53 | 47.04633 | 28.83404 | 10930 ft | 333 kts | 296° |
| 2026-04-29 19:53 | 47.05764 | 28.80341 | 11290 ft | 347 kts | 296° |
| 2026-04-29 19:54 | 47.08074 | 28.74095 | 12870 ft | 348 kts | 296° |
| 2026-04-29 19:54 | 47.09205 | 28.71023 | 13728 ft | 347 kts | 295° |
| 2026-04-29 19:54 | 47.10321 | 28.67886 | 14492 ft | 346 kts | 291° |
| 2026-04-29 19:55 | 47.11088 | 28.64554 | 15155 ft | 345 kts | 281° |
| 2026-04-29 19:55 | 47.11401 | 28.61055 | 15808 ft | 347 kts | 271° |
| 2026-04-29 19:55 | 47.11376 | 28.57505 | 16447 ft | 349 kts | 269° |
| 2026-04-29 19:55 | 47.11334 | 28.53924 | 17113 ft | 352 kts | 269° |
| 2026-04-29 19:56 | 47.11294 | 28.50311 | 17744 ft | 355 kts | 269° |
| 2026-04-29 19:56 | 47.11254 | 28.46670 | 18339 ft | 358 kts | 269° |
| 2026-04-29 19:56 | 47.11212 | 28.43000 | 18897 ft | 361 kts | 269° |
| 2026-04-29 19:56 | 47.11170 | 28.39300 | 19438 ft | 363 kts | 269° |
| 2026-04-29 19:57 | 47.11129 | 28.35584 | 19988 ft | 365 kts | 269° |
| 2026-04-29 19:57 | 47.11101 | 28.33111 | 20331 ft | 366 kts | 269° |
| 2026-04-29 19:57 | 47.11042 | 28.28097 | 21043 ft | 369 kts | 269° |
| 2026-04-29 19:57 | 47.10994 | 28.24327 | 21599 ft | 370 kts | 269° |
| 2026-04-29 19:58 | 47.10943 | 28.20547 | 22114 ft | 371 kts | 269° |
| 2026-04-29 19:58 | 47.10889 | 28.16751 | 22634 ft | 373 kts | 269° |
| 2026-04-29 19:58 | 47.10833 | 28.12927 | 23134 ft | 375 kts | 269° |
| 2026-04-29 19:58 | 47.10777 | 28.09088 | 23625 ft | 377 kts | 269° |
| 2026-04-29 19:59 | 47.10721 | 28.05232 | 24070 ft | 379 kts | 270° |
| 2026-04-29 19:59 | 47.10663 | 28.01357 | 24440 ft | 381 kts | 270° |
| 2026-04-29 19:59 | 47.10603 | 27.97464 | 24848 ft | 382 kts | 270° |
| 2026-04-29 19:59 | 47.10540 | 27.93568 | 25249 ft | 383 kts | 270° |
| 2026-04-29 20:00 | 47.10477 | 27.89654 | 25654 ft | 384 kts | 270° |
| 2026-04-29 20:00 | 47.10539 | 27.85741 | 26052 ft | 384 kts | 277° |
| 2026-04-29 20:00 | 47.11027 | 27.81883 | 26429 ft | 385 kts | 282° |
| 2026-04-29 20:00 | 47.11626 | 27.78100 | 26845 ft | 386 kts | 282° |
| 2026-04-29 20:01 | 47.12228 | 27.74259 | 27249 ft | 387 kts | 282° |
| 2026-04-29 20:01 | 47.12826 | 27.70398 | 27634 ft | 388 kts | 282° |
| 2026-04-29 20:01 | 47.13419 | 27.66549 | 28157 ft | 385 kts | 282° |
| 2026-04-29 20:01 | 47.14005 | 27.62731 | 28712 ft | 382 kts | 282° |
| 2026-04-29 20:02 | 47.14587 | 27.58944 | 29265 ft | 379 kts | 282° |
| 2026-04-29 20:02 | 47.15166 | 27.55186 | 29811 ft | 376 kts | 282° |
| 2026-04-29 20:02 | 47.15738 | 27.51457 | 30352 ft | 373 kts | 282° |
| 2026-04-29 20:02 | 47.16121 | 27.48946 | 30644 ft | 372 kts | 282° |
| 2026-04-29 20:03 | 47.16869 | 27.44038 | 31097 ft | 372 kts | 282° |
| 2026-04-29 20:03 | 47.17435 | 27.40319 | 31409 ft | 374 kts | 282° |
| 2026-04-29 20:03 | 47.18002 | 27.36578 | 31667 ft | 376 kts | 282° |
| 2026-04-29 20:03 | 47.18569 | 27.32817 | 31946 ft | 378 kts | 282° |
| 2026-04-29 20:04 | 47.19138 | 27.29036 | 32229 ft | 379 kts | 282° |
| 2026-04-29 20:04 | 47.19709 | 27.25240 | 32525 ft | 381 kts | 282° |
| 2026-04-29 20:04 | 47.20282 | 27.21434 | 32811 ft | 382 kts | 282° |
| 2026-04-29 20:04 | 47.20857 | 27.17611 | 33092 ft | 384 kts | 282° |
| 2026-04-29 20:05 | 47.21433 | 27.13777 | 33372 ft | 385 kts | 282° |
| 2026-04-29 20:05 | 47.22009 | 27.09928 | 33656 ft | 386 kts | 282° |
| 2026-04-29 20:05 | 47.22583 | 27.06065 | 33932 ft | 387 kts | 282° |
| 2026-04-29 20:05 | 47.23154 | 27.02196 | 34200 ft | 388 kts | 282° |
| 2026-04-29 20:06 | 47.23725 | 26.98310 | 34417 ft | 390 kts | 282° |
| 2026-04-29 20:06 | 47.24300 | 26.94398 | 34590 ft | 392 kts | 282° |
| 2026-04-29 20:06 | 47.24880 | 26.90463 | 34792 ft | 394 kts | 282° |
| 2026-04-29 20:06 | 47.25461 | 26.86520 | 34997 ft | 395 kts | 282° |
| 2026-04-29 20:07 | 47.26045 | 26.82556 | 35210 ft | 397 kts | 282° |
| 2026-04-29 20:07 | 47.26628 | 26.78584 | 35422 ft | 398 kts | 282° |
| 2026-04-29 20:07 | 47.27207 | 26.74593 | 35640 ft | 399 kts | 282° |
| 2026-04-29 20:07 | 47.27785 | 26.70591 | 35851 ft | 400 kts | 282° |
| 2026-04-29 20:08 | 47.28367 | 26.66577 | 36060 ft | 402 kts | 282° |
| 2026-04-29 20:08 | 47.28753 | 26.63911 | 36194 ft | 402 kts | 282° |
| 2026-04-29 20:08 | 47.29537 | 26.58496 | 36312 ft | 406 kts | 282° |
| 2026-04-29 20:08 | 47.30118 | 26.54461 | 36314 ft | 409 kts | 282° |
| 2026-04-29 20:09 | 47.31300 | 26.46243 | 36317 ft | 410 kts | 282° |
| 2026-04-29 20:09 | 47.32478 | 26.38010 | 36323 ft | 411 kts | 282° |
| 2026-04-29 20:10 | 47.33642 | 26.29766 | 36324 ft | 411 kts | 282° |
| 2026-04-29 20:10 | 47.34802 | 26.21517 | 36331 ft | 411 kts | 282° |
| 2026-04-29 20:11 | 47.35957 | 26.13253 | 36313 ft | 412 kts | 282° |
| 2026-04-29 20:11 | 47.37113 | 26.04972 | 36342 ft | 412 kts | 282° |
| 2026-04-29 20:12 | 47.38262 | 25.96674 | 36347 ft | 413 kts | 282° |
| 2026-04-29 20:12 | 47.39405 | 25.88378 | 36358 ft | 413 kts | 282° |
| 2026-04-29 20:13 | 47.40352 | 25.81468 | 36363 ft | 413 kts | 282° |
| 2026-04-29 20:13 | 47.41680 | 25.71742 | 36369 ft | 414 kts | 282° |
| 2026-04-29 20:14 | 47.42816 | 25.63420 | 36365 ft | 414 kts | 282° |
| 2026-04-29 20:14 | 47.43941 | 25.55092 | 36365 ft | 414 kts | 282° |
| 2026-04-29 20:15 | 47.45048 | 25.46809 | 36366 ft | 414 kts | 282° |
| 2026-04-29 20:15 | 47.46154 | 25.38459 | 36373 ft | 414 kts | 282° |
| 2026-04-29 20:16 | 47.47257 | 25.30111 | 36372 ft | 414 kts | 282° |
| 2026-04-29 20:16 | 47.48361 | 25.21757 | 36364 ft | 414 kts | 282° |
| 2026-04-29 20:17 | 47.49454 | 25.13390 | 36357 ft | 414 kts | 282° |
| 2026-04-29 20:17 | 47.50542 | 25.05020 | 36361 ft | 415 kts | 282° |
| 2026-04-29 20:18 | 47.51626 | 24.96642 | 36355 ft | 415 kts | 282° |
| 2026-04-29 20:18 | 47.52702 | 24.88263 | 36355 ft | 415 kts | 281° |
| 2026-04-29 20:19 | 47.53777 | 24.79875 | 36340 ft | 415 kts | 281° |
| 2026-04-29 20:19 | 47.54840 | 24.71531 | 36341 ft | 415 kts | 281° |
| 2026-04-29 20:20 | 47.55894 | 24.63134 | 36338 ft | 415 kts | 281° |
| 2026-04-29 20:20 | 47.56949 | 24.54723 | 36343 ft | 416 kts | 281° |
| 2026-04-29 20:21 | 47.58000 | 24.46295 | 36326 ft | 416 kts | 281° |
| 2026-04-29 20:21 | 47.59049 | 24.37852 | 36325 ft | 417 kts | 281° |
| 2026-04-29 20:22 | 47.60086 | 24.29395 | 36310 ft | 417 kts | 281° |
| 2026-04-29 20:22 | 47.61116 | 24.20922 | 36310 ft | 418 kts | 281° |
| 2026-04-29 20:23 | 47.62143 | 24.12443 | 36314 ft | 418 kts | 281° |
| 2026-04-29 20:23 | 47.63156 | 24.04010 | 36310 ft | 419 kts | 281° |
| 2026-04-29 20:24 | 47.64544 | 23.95647 | 36303 ft | 418 kts | 288° |
| 2026-04-29 20:24 | 47.66267 | 23.87412 | 36297 ft | 418 kts | 288° |
| 2026-04-29 20:25 | 47.67971 | 23.79153 | 36288 ft | 419 kts | 287° |
| 2026-04-29 20:25 | 47.69665 | 23.70888 | 36281 ft | 418 kts | 288° |
| 2026-04-29 20:26 | 47.71351 | 23.62624 | 36278 ft | 418 kts | 287° |
| 2026-04-29 20:26 | 47.73033 | 23.54361 | 36274 ft | 418 kts | 287° |
| 2026-04-29 20:27 | 47.74144 | 23.48891 | 36271 ft | 417 kts | 287° |
| 2026-04-29 20:27 | 47.76374 | 23.37842 | 36289 ft | 417 kts | 287° |
| 2026-04-29 20:28 | 47.78035 | 23.29598 | 36292 ft | 416 kts | 287° |
| 2026-04-29 20:28 | 47.79407 | 23.22758 | 36287 ft | 415 kts | 287° |
| 2026-04-29 20:29 | 47.81318 | 23.13206 | 36296 ft | 414 kts | 287° |
| 2026-04-29 20:29 | 47.82956 | 23.04984 | 36297 ft | 414 kts | 287° |
| 2026-04-29 20:30 | 47.84328 | 22.98099 | 36299 ft | 414 kts | 287° |
| 2026-04-29 20:30 | 47.85947 | 22.89882 | 36297 ft | 414 kts | 287° |
| 2026-04-29 20:31 | 47.87554 | 22.81649 | 36300 ft | 414 kts | 287° |
| 2026-04-29 20:31 | 47.89151 | 22.73470 | 36302 ft | 414 kts | 287° |
| 2026-04-29 20:32 | 47.90755 | 22.65232 | 36305 ft | 414 kts | 287° |
| 2026-04-29 20:32 | 47.92358 | 22.56987 | 36300 ft | 414 kts | 287° |
| 2026-04-29 20:33 | 47.93955 | 22.48739 | 36302 ft | 414 kts | 287° |
| 2026-04-29 20:33 | 47.95547 | 22.40486 | 36301 ft | 414 kts | 287° |
| 2026-04-29 20:34 | 47.97127 | 22.32222 | 36303 ft | 414 kts | 287° |
| 2026-04-29 20:34 | 47.98701 | 22.23953 | 36307 ft | 414 kts | 287° |
| 2026-04-29 20:35 | 48.00271 | 22.15683 | 36299 ft | 414 kts | 286° |
| 2026-04-29 20:35 | 48.00742 | 22.11494 | 36296 ft | 416 kts | 274° |
| 2026-04-29 20:35 | 48.00862 | 22.07174 | 36297 ft | 417 kts | 274° |
| 2026-04-29 20:36 | 48.01067 | 21.98504 | 36293 ft | 418 kts | 274° |
| 2026-04-29 20:36 | 48.01250 | 21.89807 | 36298 ft | 419 kts | 274° |
| 2026-04-29 20:37 | 48.01424 | 21.81102 | 36339 ft | 420 kts | 274° |
| 2026-04-29 20:37 | 48.01605 | 21.72383 | 36320 ft | 420 kts | 274° |
| 2026-04-29 20:38 | 48.01778 | 21.63663 | 36324 ft | 421 kts | 274° |
| 2026-04-29 20:38 | 48.01938 | 21.54921 | 36302 ft | 421 kts | 274° |
| 2026-04-29 20:39 | 48.02097 | 21.46168 | 36301 ft | 422 kts | 274° |
| 2026-04-29 20:39 | 48.02249 | 21.37409 | 36306 ft | 422 kts | 274° |
| 2026-04-29 20:40 | 48.02396 | 21.28690 | 36314 ft | 422 kts | 274° |
| 2026-04-29 20:40 | 48.02538 | 21.19920 | 36321 ft | 423 kts | 274° |
| 2026-04-29 20:41 | 48.02669 | 21.11141 | 36320 ft | 423 kts | 273° |
| 2026-04-29 20:41 | 48.02793 | 21.02358 | 36322 ft | 423 kts | 273° |
| 2026-04-29 20:42 | 48.02911 | 20.93578 | 36313 ft | 423 kts | 273° |
| 2026-04-29 20:42 | 48.03022 | 20.84805 | 36337 ft | 422 kts | 273° |
| 2026-04-29 20:43 | 48.03123 | 20.76046 | 36327 ft | 422 kts | 273° |
| 2026-04-29 20:43 | 48.03220 | 20.67330 | 36330 ft | 422 kts | 273° |
| 2026-04-29 20:44 | 48.03317 | 20.58558 | 36335 ft | 423 kts | 273° |
| 2026-04-29 20:44 | 48.03402 | 20.49775 | 36337 ft | 423 kts | 273° |
| 2026-04-29 20:45 | 48.03475 | 20.40995 | 36338 ft | 423 kts | 272° |
| 2026-04-29 20:45 | 48.03549 | 20.32191 | 36320 ft | 424 kts | 273° |
| 2026-04-29 20:46 | 48.03625 | 20.23372 | 36327 ft | 425 kts | 273° |
| 2026-04-29 20:46 | 48.03702 | 20.14536 | 36330 ft | 426 kts | 273° |
| 2026-04-29 20:47 | 48.03767 | 20.05686 | 36344 ft | 426 kts | 272° |
| 2026-04-29 20:47 | 48.03820 | 19.96827 | 36344 ft | 427 kts | 272° |
| 2026-04-29 20:48 | 48.03869 | 19.87955 | 36321 ft | 428 kts | 273° |
| 2026-04-29 20:48 | 48.03917 | 19.79116 | 36326 ft | 429 kts | 273° |
| 2026-04-29 20:49 | 48.03960 | 19.70197 | 36325 ft | 429 kts | 272° |
| 2026-04-29 20:49 | 48.03972 | 19.65746 | 35849 ft | 427 kts | 272° |
| 2026-04-29 20:49 | 48.03980 | 19.61319 | 35327 ft | 425 kts | 272° |
| 2026-04-29 20:50 | 48.03987 | 19.56907 | 34800 ft | 424 kts | 272° |
| 2026-04-29 20:50 | 48.03997 | 19.52517 | 34256 ft | 422 kts | 272° |
| 2026-04-29 20:50 | 48.04007 | 19.48138 | 33589 ft | 421 kts | 272° |
| 2026-04-29 20:50 | 48.04017 | 19.43768 | 32907 ft | 420 kts | 272° |
| 2026-04-29 20:51 | 48.04026 | 19.39413 | 32247 ft | 419 kts | 272° |
| 2026-04-29 20:51 | 48.04032 | 19.35076 | 31596 ft | 417 kts | 272° |
| 2026-04-29 20:51 | 48.04036 | 19.30755 | 30953 ft | 415 kts | 272° |
| 2026-04-29 20:51 | 48.04039 | 19.26453 | 30293 ft | 413 kts | 272° |
| 2026-04-29 20:52 | 48.04036 | 19.22171 | 29484 ft | 412 kts | 272° |
| 2026-04-29 20:52 | 48.04029 | 19.17895 | 28606 ft | 412 kts | 272° |
| 2026-04-29 20:52 | 48.04024 | 19.13612 | 27693 ft | 412 kts | 272° |
| 2026-04-29 20:52 | 48.04020 | 19.09322 | 26760 ft | 413 kts | 272° |
| 2026-04-29 20:53 | 48.04016 | 19.05022 | 25814 ft | 414 kts | 272° |
| 2026-04-29 20:53 | 48.04008 | 19.00705 | 24807 ft | 418 kts | 272° |
| 2026-04-29 20:53 | 48.03999 | 18.96370 | 24065 ft | 415 kts | 272° |
| 2026-04-29 20:53 | 48.03986 | 18.92086 | 23306 ft | 410 kts | 272° |
| 2026-04-29 20:54 | 48.03958 | 18.83602 | 22179 ft | 407 kts | 272° |
| 2026-04-29 20:54 | 48.03941 | 18.79443 | 21650 ft | 405 kts | 272° |
| 2026-04-29 20:54 | 48.03923 | 18.75252 | 21125 ft | 402 kts | 272° |
| 2026-04-29 20:55 | 48.03902 | 18.71090 | 20608 ft | 400 kts | 272° |
| 2026-04-29 20:55 | 48.03881 | 18.66953 | 20102 ft | 397 kts | 272° |
| 2026-04-29 20:55 | 48.03862 | 18.62834 | 19603 ft | 395 kts | 272° |
| 2026-04-29 20:55 | 48.03841 | 18.58748 | 19078 ft | 393 kts | 272° |
| 2026-04-29 20:56 | 48.03816 | 18.54669 | 18605 ft | 393 kts | 272° |
| 2026-04-29 20:56 | 48.03788 | 18.50593 | 18047 ft | 391 kts | 272° |
| 2026-04-29 20:56 | 48.03757 | 18.46537 | 17497 ft | 390 kts | 272° |
| 2026-04-29 20:56 | 48.03725 | 18.42488 | 16953 ft | 389 kts | 272° |
| 2026-04-29 20:57 | 48.03694 | 18.38460 | 16399 ft | 387 kts | 272° |
| 2026-04-29 20:57 | 48.03665 | 18.34452 | 15878 ft | 384 kts | 272° |
| 2026-04-29 20:57 | 48.03635 | 18.30475 | 15369 ft | 382 kts | 272° |
| 2026-04-29 20:57 | 48.03604 | 18.26517 | 14865 ft | 380 kts | 272° |
| 2026-04-29 20:58 | 48.03570 | 18.22596 | 14264 ft | 376 kts | 272° |
| 2026-04-29 20:58 | 48.03531 | 18.18693 | 13537 ft | 374 kts | 272° |
| 2026-04-29 20:58 | 48.03490 | 18.14818 | 12777 ft | 372 kts | 272° |
| 2026-04-29 20:58 | 48.03450 | 18.10959 | 11988 ft | 371 kts | 272° |
| 2026-04-29 20:59 | 48.03412 | 18.07101 | 11202 ft | 371 kts | 271° |
| 2026-04-29 20:59 | 48.03374 | 18.03253 | 10441 ft | 370 kts | 271° |
| 2026-04-29 20:59 | 48.03332 | 17.99450 | 9983 ft | 360 kts | 271° |
| 2026-04-29 20:59 | 48.03288 | 17.95764 | 9667 ft | 347 kts | 271° |
| 2026-04-29 21:00 | 48.03242 | 17.92249 | 9525 ft | 330 kts | 271° |
| 2026-04-29 21:00 | 48.03197 | 17.88908 | 9389 ft | 315 kts | 271° |
| 2026-04-29 21:00 | 48.03155 | 17.85708 | 9251 ft | 301 kts | 271° |
| 2026-04-29 21:00 | 48.03117 | 17.82641 | 9115 ft | 289 kts | 271° |
| 2026-04-29 21:01 | 48.03082 | 17.79695 | 8947 ft | 279 kts | 272° |
| 2026-04-29 21:01 | 48.03047 | 17.76811 | 8608 ft | 277 kts | 272° |
| 2026-04-29 21:01 | 48.03013 | 17.73938 | 8210 ft | 276 kts | 272° |
| 2026-04-29 21:01 | 48.02979 | 17.71059 | 7779 ft | 278 kts | 271° |
| 2026-04-29 21:02 | 48.02944 | 17.68211 | 7406 ft | 277 kts | 271° |
| 2026-04-29 21:02 | 48.02905 | 17.65359 | 7143 ft | 272 kts | 272° |
| 2026-04-29 21:02 | 48.02866 | 17.62549 | 6804 ft | 270 kts | 271° |
| 2026-04-29 21:02 | 48.02826 | 17.59750 | 6437 ft | 269 kts | 271° |
| 2026-04-29 21:03 | 48.02784 | 17.56956 | 6009 ft | 270 kts | 270° |
| 2026-04-29 21:03 | 48.02743 | 17.54145 | 5584 ft | 271 kts | 271° |
| 2026-04-29 21:03 | 48.02699 | 17.51328 | 5210 ft | 271 kts | 270° |
| 2026-04-29 21:03 | 48.02288 | 17.48588 | 4795 ft | 274 kts | 241° |
| 2026-04-29 21:04 | 48.00946 | 17.46630 | 4421 ft | 272 kts | 204° |
| 2026-04-29 21:04 | 47.99130 | 17.45988 | 4053 ft | 267 kts | 184° |
| 2026-04-29 21:04 | 47.97367 | 17.45287 | 3880 ft | 262 kts | 208° |
| 2026-04-29 21:04 | 47.96063 | 17.43485 | 3677 ft | 254 kts | 238° |
| 2026-04-29 21:05 | 47.95416 | 17.41129 | 3470 ft | 242 kts | 268° |
| 2026-04-29 21:05 | 47.95652 | 17.38736 | 3251 ft | 230 kts | 302° |
| 2026-04-29 21:05 | 47.96665 | 17.37037 | 3045 ft | 214 kts | 339° |
| 2026-04-29 21:05 | 47.98056 | 17.36473 | 2839 ft | 206 kts | 1° |
| 2026-04-29 21:06 | 47.99487 | 17.36431 | 2632 ft | 205 kts | 5° |
| 2026-04-29 21:06 | 48.00898 | 17.36462 | 2544 ft | 198 kts | 6° |
| 2026-04-29 21:06 | 48.02235 | 17.36491 | 2500 ft | 189 kts | 6° |
| 2026-04-29 21:06 | 48.03536 | 17.36516 | 2505 ft | 186 kts | 6° |
| 2026-04-29 21:07 | 48.04825 | 17.36538 | 2509 ft | 185 kts | 5° |
| 2026-04-29 21:07 | 48.06092 | 17.36207 | 2533 ft | 182 kts | 349° |
| 2026-04-29 21:07 | 48.07261 | 17.35606 | 2511 ft | 173 kts | 347° |
| 2026-04-29 21:07 | 48.08295 | 17.34754 | 2489 ft | 173 kts | 326° |
| 2026-04-29 21:08 | 48.09102 | 17.33515 | 2355 ft | 157 kts | 323° |
| 2026-04-29 21:08 | 48.09834 | 17.32374 | 2161 ft | 148 kts | 324° |
| 2026-04-29 21:08 | 48.10530 | 17.31300 | 1960 ft | 144 kts | 324° |
| 2026-04-29 21:08 | 48.11223 | 17.30223 | 1772 ft | 143 kts | 323° |
| 2026-04-29 21:09 | 48.11913 | 17.29161 | 1569 ft | 142 kts | 322° |
| 2026-04-29 21:09 | 48.12600 | 17.28099 | 1369 ft | 142 kts | 320° |
| 2026-04-29 21:09 | 48.13276 | 17.27048 | 1175 ft | 138 kts | 320° |
| 2026-04-29 21:09 | 48.13938 | 17.26024 | 977 ft | 137 kts | 319° |
| 2026-04-29 21:10 | 48.14599 | 17.24999 | 803 ft | 137 kts | 319° |
| 2026-04-29 21:10 | 48.15261 | 17.23979 | 617 ft | 137 kts | 319° |
| 2026-04-29 21:10 | 48.15922 | 17.22947 | 430 ft | 134 kts | 318° |
| 2026-04-29 21:10 | 48.16490 | 17.22075 | 429 ft | 95 kts | 314° |
| 2026-04-29 21:11 | 48.16830 | 17.21549 | 425 ft | 45 kts | 314° |
| 2026-04-29 21:11 | 48.17029 | 17.21247 | 422 ft | 35 kts | 314° |
| 2026-04-29 21:11 | 48.17136 | 17.21076 | 417 ft | 13 kts | 303° |
| 2026-04-29 21:11 | 48.17092 | 17.20965 | 426 ft | 13 kts | 227° |
| 2026-04-29 21:12 | 48.17040 | 17.20875 | 425 ft | 6 kts | 252° |
| 2026-04-29 21:12 | 48.17072 | 17.20798 | 428 ft | 14 kts | 312° |
| 2026-04-29 21:12 | 48.17146 | 17.20679 | 421 ft | 17 kts | 313° |
| 2026-04-29 21:12 | 48.17158 | 17.20556 | 421 ft | 12 kts | 232° |
| 2026-04-29 21:13 | 48.17097 | 17.20474 | 424 ft | 4 kts | 222° |
| 2026-04-29 21:13 | 48.17086 | 17.20437 | 424 ft | 4 kts | 283° |
| 2026-04-29 21:13 | 48.17112 | 17.20391 | 428 ft | 6 kts | 314° |
| 2026-04-29 21:13 | 48.17123 | 17.20372 | 428 ft | 0 kts | 313° |